createdAt,value
2017-05-19T00:00:42.363Z,2.65
2017-05-19T00:03:08.995Z,2.42
2017-05-19T00:05:35.662Z,2.28
2017-05-19T00:08:02.270Z,2.02
2017-05-19T00:10:28.946Z,2.50
2017-05-19T00:12:55.563Z,2.70
2017-05-19T00:15:22.175Z,3.03
2017-05-19T00:17:48.804Z,2.67
2017-05-19T00:20:15.459Z,2.52
2017-05-19T00:22:42.070Z,2.73
2017-05-19T00:25:08.705Z,2.42
2017-05-19T00:27:35.307Z,2.57
2017-05-19T00:30:01.910Z,2.58
2017-05-19T00:32:28.547Z,2.47
2017-05-19T00:34:55.156Z,3.08
2017-05-19T00:37:21.775Z,2.23
2017-05-19T00:39:48.403Z,2.48
2017-05-19T00:42:15.007Z,2.38
2017-05-19T00:44:41.616Z,3.13
2017-05-19T00:47:08.251Z,2.68
2017-05-19T00:49:34.859Z,2.45
2017-05-19T00:52:01.470Z,2.37
2017-05-19T00:54:28.113Z,2.43
2017-05-19T00:56:54.714Z,2.62
2017-05-19T00:59:21.323Z,2.08
2017-05-19T01:01:47.976Z,1.93
2017-05-19T01:04:14.587Z,2.55
2017-05-19T01:06:41.195Z,2.43
2017-05-19T01:09:07.826Z,2.37
2017-05-19T01:11:34.436Z,2.12
2017-05-19T01:14:01.147Z,2.13
2017-05-19T01:16:27.783Z,2.70
2017-05-19T01:18:54.393Z,2.73
2017-05-19T01:21:20.998Z,2.37
2017-05-19T01:23:47.635Z,1.72
2017-05-19T01:26:14.239Z,2.02
2017-05-19T01:28:40.847Z,2.12
2017-05-19T01:31:07.491Z,2.37
2017-05-19T01:33:34.098Z,2.50
2017-05-19T01:36:00.707Z,2.65
2017-05-19T01:38:27.340Z,2.30
2017-05-19T01:40:53.951Z,2.98
2017-05-19T01:43:20.610Z,2.88
2017-05-19T01:45:47.238Z,2.67
2017-05-19T01:48:13.890Z,2.28
2017-05-19T01:50:40.495Z,2.83
2017-05-19T01:53:07.122Z,2.75
2017-05-19T01:55:33.726Z,4.73
2017-05-19T01:58:00.336Z,4.83
2017-05-19T02:00:26.983Z,4.98
2017-05-19T02:02:53.594Z,4.88
2017-05-19T02:05:20.195Z,3.92
2017-05-19T02:07:46.839Z,3.80
2017-05-19T02:10:13.439Z,3.80
2017-05-19T02:12:40.048Z,3.80
2017-05-19T02:15:06.691Z,3.40
2017-05-19T02:17:33.304Z,3.40
2017-05-19T02:19:59.911Z,3.00
2017-05-19T02:22:27.374Z,3.75
2017-05-19T02:24:53.984Z,3.82
2017-05-19T02:27:20.629Z,3.47
2017-05-19T02:29:47.281Z,3.73
2017-05-19T02:32:13.890Z,3.23
2017-05-19T02:34:40.543Z,3.60
2017-05-19T02:37:07.219Z,3.15
2017-05-19T02:39:33.841Z,3.43
2017-05-19T02:42:00.454Z,3.32
2017-05-19T02:44:27.092Z,3.30
2017-05-19T02:46:53.699Z,3.05
2017-05-19T02:49:20.310Z,3.33
2017-05-19T02:51:46.944Z,3.73
2017-05-19T02:54:13.551Z,3.92
2017-05-19T02:56:40.154Z,4.00
2017-05-19T02:59:06.789Z,3.98
2017-05-19T03:02:00.464Z,4.35
2017-05-19T03:04:27.138Z,4.50
2017-05-19T03:06:53.751Z,4.13
2017-05-19T03:09:20.523Z,4.23
2017-05-19T03:11:47.159Z,3.80
2017-05-19T03:14:13.787Z,4.58
2017-05-19T03:16:40.418Z,4.25
2017-05-19T03:19:07.034Z,4.55
2017-05-19T03:21:33.651Z,4.68
2017-05-19T03:24:00.290Z,4.23
2017-05-19T03:26:26.992Z,4.37
2017-05-19T03:28:53.624Z,4.70
2017-05-19T03:31:20.266Z,4.95
2017-05-19T03:33:46.878Z,5.38
2017-05-19T03:36:13.546Z,6.45
2017-05-19T03:38:40.187Z,4.45
2017-05-19T03:41:06.827Z,5.77
2017-05-19T03:43:33.469Z,4.73
2017-05-19T03:46:00.108Z,4.63
2017-05-19T03:48:26.722Z,4.75
2017-05-19T03:50:53.383Z,4.68
2017-05-19T03:53:20.020Z,4.35
2017-05-19T03:55:46.638Z,3.90
2017-05-19T03:58:13.252Z,4.22
2017-05-19T04:00:39.890Z,3.55
2017-05-19T04:03:06.579Z,4.13
2017-05-19T04:05:33.253Z,4.43
2017-05-19T04:07:59.960Z,4.07
2017-05-19T04:10:26.575Z,4.40
2017-05-19T04:12:53.196Z,6.20
2017-05-19T04:15:19.880Z,5.95
2017-05-19T04:17:46.495Z,5.25
2017-05-19T04:20:13.154Z,5.43
2017-05-19T04:22:39.795Z,5.60
2017-05-19T04:25:06.431Z,6.17
2017-05-19T04:27:33.071Z,5.98
2017-05-19T04:29:59.707Z,5.57
2017-05-19T04:32:26.331Z,6.58
2017-05-19T04:34:52.947Z,6.52
2017-05-19T04:37:19.603Z,6.67
2017-05-19T04:39:46.219Z,6.48
2017-05-19T04:42:12.907Z,6.82
2017-05-19T04:44:39.547Z,6.13
2017-05-19T04:47:06.183Z,6.55
2017-05-19T04:49:32.800Z,6.28
2017-05-19T04:51:59.450Z,5.80
2017-05-19T04:54:26.134Z,5.88
2017-05-19T04:56:52.747Z,6.57
2017-05-19T04:59:19.479Z,6.65
2017-05-19T05:01:46.119Z,6.78
2017-05-19T05:04:12.735Z,5.53
2017-05-19T05:06:39.379Z,6.23
2017-05-19T05:09:05.996Z,5.23
2017-05-19T05:11:32.679Z,6.12
2017-05-19T05:13:59.315Z,5.58
2017-05-19T05:16:25.933Z,5.95
2017-05-19T05:18:53.071Z,5.22
2017-05-19T05:21:19.722Z,5.62
2017-05-19T05:23:46.418Z,5.02
2017-05-19T05:26:13.027Z,4.23
2017-05-19T05:28:39.680Z,4.73
2017-05-19T05:31:06.399Z,4.22
2017-05-19T05:33:33.012Z,4.58
2017-05-19T05:35:59.647Z,5.73
2017-05-19T05:38:26.271Z,4.40
2017-05-19T05:40:52.955Z,4.22
2017-05-19T05:43:19.591Z,3.55
2017-05-19T05:45:46.207Z,4.47
2017-05-19T05:48:12.827Z,4.02
2017-05-19T05:50:39.464Z,3.60
2017-05-19T05:53:06.078Z,3.83
2017-05-19T05:55:32.787Z,3.88
2017-05-19T05:57:59.534Z,3.32
2017-05-19T06:00:26.150Z,4.18
2017-05-19T06:02:52.845Z,3.32
2017-05-19T06:05:19.487Z,3.90
2017-05-19T06:07:46.193Z,3.57
2017-05-19T06:10:12.808Z,3.40
2017-05-19T06:12:39.475Z,3.32
2017-05-19T06:15:06.208Z,3.15
2017-05-19T06:17:32.851Z,3.00
2017-05-19T06:19:59.489Z,3.37
2017-05-19T06:22:26.126Z,3.50
2017-05-19T06:24:52.764Z,3.58
2017-05-19T06:27:19.404Z,3.85
2017-05-19T06:29:46.042Z,3.33
2017-05-19T06:32:12.683Z,3.00
2017-05-19T06:34:39.422Z,3.60
2017-05-19T06:37:06.035Z,3.45
2017-05-19T06:39:32.655Z,3.58
2017-05-19T06:41:59.297Z,3.55
2017-05-19T06:44:25.939Z,3.62
2017-05-19T06:46:52.556Z,2.97
2017-05-19T06:49:19.190Z,3.60
2017-05-19T06:51:45.803Z,3.77
2017-05-19T06:54:12.419Z,3.85
2017-05-19T06:56:39.175Z,4.25
2017-05-19T06:59:05.791Z,3.70
2017-05-19T07:01:32.407Z,4.02
2017-05-19T07:03:59.059Z,3.90
2017-05-19T07:06:25.726Z,3.27
2017-05-19T07:08:52.343Z,3.05
2017-05-19T07:11:18.975Z,2.95
2017-05-19T07:13:45.647Z,3.08
2017-05-19T07:16:12.260Z,3.28
2017-05-19T07:18:38.903Z,3.22
2017-05-19T07:21:05.515Z,2.72
2017-05-19T07:23:32.151Z,2.95
2017-05-19T07:25:58.840Z,2.90
2017-05-19T07:28:25.455Z,2.90
2017-05-19T07:30:52.070Z,3.62
2017-05-19T07:33:18.719Z,2.88
2017-05-19T07:35:45.396Z,2.80
2017-05-19T07:38:12.035Z,3.42
2017-05-19T07:40:38.675Z,2.82
2017-05-19T07:43:05.312Z,3.83
2017-05-19T07:45:31.932Z,3.15
2017-05-19T07:47:58.575Z,2.88
2017-05-19T07:50:25.265Z,3.28
2017-05-19T07:52:51.971Z,3.08
2017-05-19T07:55:18.611Z,3.25
2017-05-19T07:57:45.231Z,3.23
2017-05-19T08:00:11.895Z,4.47
2017-05-19T08:02:38.631Z,3.00
2017-05-19T08:05:05.244Z,2.75
2017-05-19T08:07:31.859Z,3.23
2017-05-19T08:09:58.499Z,3.07
2017-05-19T08:12:25.123Z,2.92
2017-05-19T08:14:51.735Z,3.50
2017-05-19T08:17:18.471Z,3.43
2017-05-19T08:19:45.087Z,2.82
2017-05-19T08:22:11.707Z,3.62
2017-05-19T08:24:38.387Z,3.78
2017-05-19T08:27:05.006Z,3.27
2017-05-19T08:29:31.622Z,2.75
2017-05-19T08:31:58.298Z,2.92
2017-05-19T08:34:24.914Z,3.13
2017-05-19T08:36:51.574Z,3.13
2017-05-19T08:39:18.216Z,2.77
2017-05-19T08:41:44.834Z,3.62
2017-05-19T08:44:11.496Z,3.37
2017-05-19T08:46:38.160Z,3.90
2017-05-19T08:49:04.807Z,3.73
2017-05-19T08:51:31.514Z,3.72
2017-05-19T08:53:58.156Z,3.10
2017-05-19T08:56:24.770Z,3.58
2017-05-19T08:58:51.391Z,3.10
2017-05-19T09:01:18.030Z,3.73
2017-05-19T09:03:44.647Z,3.75
2017-05-19T09:06:11.348Z,4.13
2017-05-19T09:08:38.086Z,3.52
2017-05-19T09:11:04.763Z,3.62
2017-05-19T09:13:31.378Z,3.62
2017-05-19T09:15:58.107Z,4.00
2017-05-19T09:18:24.727Z,3.55
2017-05-19T09:20:51.388Z,3.85
2017-05-19T09:23:18.030Z,3.68
2017-05-19T09:25:44.642Z,3.35
2017-05-19T09:28:11.273Z,3.47
2017-05-19T09:30:37.927Z,3.75
2017-05-19T09:33:04.580Z,4.48
2017-05-19T09:35:31.201Z,4.18
2017-05-19T09:37:57.859Z,5.07
2017-05-19T09:40:24.480Z,4.58
2017-05-19T09:42:51.095Z,4.75
2017-05-19T09:45:17.739Z,3.97
2017-05-19T09:47:44.351Z,3.77
2017-05-19T09:50:11.051Z,4.63
2017-05-19T09:52:37.709Z,5.07
2017-05-19T09:55:04.373Z,4.40
2017-05-19T09:57:30.987Z,4.28
2017-05-19T09:59:57.746Z,4.37
2017-05-19T10:02:24.358Z,3.83
2017-05-19T10:04:50.971Z,3.82
2017-05-19T10:07:17.626Z,4.07
2017-05-19T10:09:44.247Z,3.93
2017-05-19T10:12:10.876Z,3.53
2017-05-19T10:14:37.548Z,4.37
2017-05-19T10:17:04.180Z,3.70
2017-05-19T10:19:30.823Z,4.43
2017-05-19T10:21:57.462Z,3.88
2017-05-19T10:24:24.079Z,4.75
2017-05-19T10:26:50.699Z,4.50
2017-05-19T10:29:17.335Z,4.37
2017-05-19T10:31:44.022Z,4.98
2017-05-19T10:34:11.720Z,4.57
2017-05-19T10:36:38.842Z,8.15
2017-05-19T10:39:05.491Z,5.63
2017-05-19T10:41:32.117Z,6.32
2017-05-19T10:43:59.448Z,14.22
2017-05-19T10:46:26.346Z,30.15
2017-05-19T10:48:53.699Z,15.98
2017-05-19T10:51:23.086Z,5.35
2017-05-19T10:53:55.566Z,12.02
2017-05-19T10:56:25.085Z,7.38
2017-05-19T10:58:52.032Z,7.90
2017-05-19T11:01:19.284Z,16.05
2017-05-19T11:03:45.999Z,8.08
2017-05-19T11:06:12.821Z,7.68
2017-05-19T11:08:39.714Z,6.37
2017-05-19T11:11:06.391Z,7.88
2017-05-19T11:13:33.108Z,5.42
2017-05-19T11:15:59.799Z,6.53
2017-05-19T11:18:26.539Z,7.42
2017-05-19T11:20:53.155Z,5.62
2017-05-19T11:23:19.772Z,5.72
2017-05-19T11:25:47.126Z,13.87
2017-05-19T11:28:13.818Z,7.82
2017-05-19T11:30:40.450Z,6.13
2017-05-19T11:33:07.100Z,7.08
2017-05-19T11:35:33.832Z,7.77
2017-05-19T11:38:00.483Z,5.68
2017-05-19T11:40:28.171Z,5.47
2017-05-19T11:42:54.881Z,6.40
2017-05-19T11:45:21.619Z,5.90
2017-05-19T11:47:48.259Z,6.13
2017-05-19T11:50:14.886Z,5.57
2017-05-19T11:52:41.507Z,5.32
2017-05-19T11:55:08.172Z,5.97
2017-05-19T11:57:34.791Z,5.10
2017-05-19T12:00:01.460Z,31.28
2017-05-19T12:02:28.126Z,8.88
2017-05-19T12:04:54.743Z,5.32
2017-05-19T12:07:21.694Z,4.72
2017-05-19T12:09:54.454Z,5.63
2017-05-19T12:12:21.112Z,6.13
2017-05-19T12:14:47.738Z,6.28
2017-05-19T12:17:14.454Z,4.97
2017-05-19T12:19:41.106Z,5.15
2017-05-19T12:22:07.856Z,18.27
2017-05-19T12:24:34.599Z,6.60
2017-05-19T12:27:01.230Z,4.98
2017-05-19T12:29:27.920Z,5.38
2017-05-19T12:31:54.624Z,4.80
2017-05-19T12:34:21.244Z,5.70
2017-05-19T12:36:47.895Z,5.52
2017-05-19T12:39:14.535Z,5.12
2017-05-19T12:41:41.183Z,9.43
2017-05-19T12:44:07.798Z,5.78
2017-05-19T12:46:34.551Z,5.10
2017-05-19T12:49:01.169Z,4.85
2017-05-19T12:51:27.791Z,4.68
2017-05-19T12:53:54.472Z,5.02
2017-05-19T12:56:21.091Z,4.73
2017-05-19T12:58:47.715Z,4.32
2017-05-19T13:01:14.359Z,4.25
2017-05-19T13:03:41.027Z,3.68
2017-05-19T13:06:07.650Z,4.47
2017-05-19T13:08:34.408Z,3.70
2017-05-19T13:11:01.056Z,3.85
2017-05-19T13:13:27.676Z,4.75
2017-05-19T13:15:54.314Z,4.12
2017-05-19T13:18:20.967Z,4.35
2017-05-19T13:20:47.603Z,4.83
2017-05-19T13:23:14.444Z,4.20
2017-05-19T13:25:41.161Z,4.18
2017-05-19T13:28:07.908Z,4.22
2017-05-19T13:30:34.575Z,3.77
2017-05-19T13:33:01.198Z,4.15
2017-05-19T13:35:27.819Z,3.83
2017-05-19T13:37:54.468Z,4.20
2017-05-19T13:40:21.126Z,4.30
2017-05-19T13:42:47.863Z,4.70
2017-05-19T13:45:14.527Z,36.08
2017-05-19T13:47:41.141Z,4.00
2017-05-19T13:50:07.759Z,3.66
2017-05-19T13:52:34.407Z,3.40
2017-05-19T13:55:01.031Z,4.50
2017-05-19T13:57:27.671Z,4.47
2017-05-19T13:59:54.439Z,4.70
2017-05-19T14:02:21.059Z,4.13
2017-05-19T14:04:47.675Z,4.78
2017-05-19T14:07:14.327Z,4.42
2017-05-19T14:09:40.947Z,6.33
2017-05-19T14:12:07.635Z,5.43
2017-05-19T14:14:34.328Z,7.13
2017-05-19T14:17:00.946Z,6.03
2017-05-19T14:19:27.563Z,6.65
2017-05-19T14:21:54.202Z,7.70
2017-05-19T14:24:20.832Z,7.65
2017-05-19T14:26:47.466Z,9.77
2017-05-19T14:29:14.128Z,9.10
2017-05-19T14:31:40.851Z,9.65
2017-05-19T14:34:07.475Z,9.13
2017-05-19T14:36:34.232Z,8.95
2017-05-19T14:39:00.847Z,8.22
2017-05-19T14:41:27.466Z,10.27
2017-05-19T14:43:54.124Z,10.12
2017-05-19T14:46:20.755Z,10.68
2017-05-19T14:48:47.391Z,14.15
2017-05-19T14:51:15.225Z,16.10
2017-05-19T14:53:41.899Z,12.03
2017-05-19T14:56:08.731Z,11.77
2017-05-19T14:58:35.758Z,9.87
2017-05-19T15:01:02.419Z,10.77
2017-05-19T15:03:29.039Z,8.47
2017-05-19T15:05:55.695Z,8.15
2017-05-19T15:08:22.308Z,6.97
2017-05-19T15:10:48.926Z,5.20
2017-05-19T15:13:15.575Z,3.83
2017-05-19T15:15:42.198Z,3.32
2017-05-19T15:18:08.820Z,3.90
2017-05-19T15:20:35.475Z,2.77
2017-05-19T15:23:02.095Z,2.25
2017-05-19T15:25:28.721Z,2.10
2017-05-19T15:27:55.429Z,1.58
2017-05-19T15:30:22.049Z,1.48
2017-05-19T15:32:48.671Z,1.50
2017-05-19T15:35:15.331Z,1.48
2017-05-19T15:37:41.942Z,1.32
2017-05-19T15:40:08.587Z,1.52
2017-05-19T15:42:35.328Z,1.68
2017-05-19T15:45:01.945Z,1.22
2017-05-19T15:47:28.562Z,1.40
2017-05-19T15:49:55.243Z,1.12
2017-05-19T15:52:21.882Z,1.03
2017-05-19T15:54:48.494Z,1.38
2017-05-19T15:57:15.131Z,1.25
2017-05-19T15:59:41.751Z,1.83
2017-05-19T16:02:08.369Z,1.22
2017-05-19T16:04:35.004Z,1.50
2017-05-19T16:07:01.715Z,1.25
2017-05-19T16:09:28.355Z,1.42
2017-05-19T16:11:55.098Z,1.28
2017-05-19T16:14:21.711Z,1.30
2017-05-19T16:16:48.327Z,1.42
2017-05-19T16:19:14.975Z,1.82
2017-05-19T16:21:41.587Z,1.50
2017-05-19T16:24:08.204Z,1.75
2017-05-19T16:26:34.839Z,1.60
2017-05-19T16:29:01.451Z,1.27
2017-05-19T16:31:28.067Z,1.03
2017-05-19T16:33:54.715Z,1.22
2017-05-19T16:36:21.332Z,1.30
2017-05-19T16:38:48.019Z,1.35
2017-05-19T16:41:14.762Z,1.70
2017-05-19T16:43:41.403Z,1.28
2017-05-19T16:46:08.019Z,1.30
2017-05-19T16:48:34.664Z,1.35
2017-05-19T16:51:01.319Z,1.55
2017-05-19T16:53:27.936Z,1.28
2017-05-19T16:55:54.596Z,1.40
2017-05-19T16:58:21.215Z,1.30
2017-05-19T17:00:47.827Z,1.73
2017-05-19T17:03:14.467Z,1.18
2017-05-19T17:05:41.155Z,1.28
2017-05-19T17:08:07.771Z,1.20
2017-05-19T17:10:34.413Z,1.40
2017-05-19T17:13:01.032Z,2.43
2017-05-19T17:15:27.650Z,2.02
2017-05-19T17:17:54.291Z,1.97
2017-05-19T17:20:20.906Z,2.95
2017-05-19T17:22:47.519Z,2.87
2017-05-19T17:25:14.175Z,2.27
2017-05-19T17:27:40.792Z,1.70
2017-05-19T17:30:07.415Z,4.08
2017-05-19T17:32:34.079Z,2.20
2017-05-19T17:35:00.707Z,2.15
2017-05-19T17:37:27.323Z,3.03
2017-05-19T17:39:53.964Z,3.28
2017-05-19T17:42:20.638Z,2.37
2017-05-19T17:44:47.255Z,2.52
2017-05-19T17:47:13.906Z,2.57
2017-05-19T17:49:40.555Z,1.60
2017-05-19T17:52:07.187Z,2.33
2017-05-19T17:54:33.829Z,2.12
2017-05-19T17:57:00.446Z,3.62
2017-05-19T17:59:27.108Z,3.22
2017-05-19T18:01:53.856Z,2.08
2017-05-19T18:04:20.475Z,7.82
2017-05-19T18:06:47.087Z,3.45
2017-05-19T18:09:13.764Z,3.28
2017-05-19T18:11:40.384Z,3.03
2017-05-19T18:14:07.004Z,3.30
2017-05-19T18:16:33.687Z,4.30
2017-05-19T18:19:00.300Z,5.45
2017-05-19T18:21:26.957Z,6.32
2017-05-19T18:23:53.583Z,6.13
2017-05-19T18:26:20.199Z,5.23
2017-05-19T18:28:46.816Z,8.55
2017-05-19T18:31:13.823Z,5.65
2017-05-19T18:33:40.434Z,5.88
2017-05-19T18:36:07.056Z,7.48
2017-05-19T18:38:33.698Z,7.37
2017-05-19T18:41:00.378Z,6.07
2017-05-19T18:43:26.991Z,8.12
2017-05-19T18:45:53.631Z,6.62
2017-05-19T18:48:20.294Z,6.13
2017-05-19T18:50:46.911Z,6.95
2017-05-19T18:53:13.572Z,6.52
2017-05-19T18:55:40.191Z,7.60
2017-05-19T18:58:06.850Z,8.28
2017-05-19T19:00:33.520Z,5.90
2017-05-19T19:03:00.231Z,7.07
2017-05-19T19:05:26.867Z,5.93
2017-05-19T19:07:54.447Z,8.50
2017-05-19T19:10:21.060Z,5.43
2017-05-19T19:12:47.675Z,4.28
2017-05-19T19:15:14.311Z,3.62
2017-05-19T19:17:40.932Z,4.48
2017-05-19T19:20:08.262Z,3.33
2017-05-19T19:22:34.987Z,2.87
2017-05-19T19:25:01.615Z,4.15
2017-05-19T19:27:28.260Z,4.57
2017-05-19T19:29:54.911Z,5.25
2017-05-19T19:32:21.555Z,4.13
2017-05-19T19:34:48.172Z,3.97
2017-05-19T19:37:14.807Z,4.27
2017-05-19T19:39:41.451Z,5.02
2017-05-19T19:42:08.071Z,6.40
2017-05-19T19:44:34.730Z,4.05
2017-05-19T19:47:01.372Z,4.53
2017-05-19T19:49:27.984Z,3.98
2017-05-19T19:51:54.627Z,3.83
2017-05-19T19:54:21.243Z,3.43
2017-05-19T19:56:47.858Z,4.55
2017-05-19T19:59:14.511Z,3.42
2017-05-19T20:01:41.132Z,3.65
2017-05-19T20:04:07.747Z,4.05
2017-05-19T20:06:34.483Z,4.25
2017-05-19T20:09:01.105Z,4.02
2017-05-19T20:11:27.723Z,2.87
2017-05-19T20:13:54.360Z,3.08
2017-05-19T20:16:21.039Z,3.62
2017-05-19T20:18:47.675Z,3.60
2017-05-19T20:21:14.418Z,3.32
2017-05-19T20:23:41.060Z,3.20
2017-05-19T20:26:07.678Z,3.78
2017-05-19T20:28:34.438Z,3.30
2017-05-19T20:31:01.076Z,3.22
2017-05-19T20:33:27.715Z,4.47
2017-05-19T20:35:54.355Z,2.93
2017-05-19T20:38:20.966Z,3.30
2017-05-19T20:40:47.635Z,2.50
2017-05-19T20:43:14.371Z,2.22
2017-05-19T20:45:40.987Z,2.63
2017-05-19T20:48:07.655Z,2.28
2017-05-19T20:50:34.399Z,3.15
2017-05-19T20:53:01.011Z,2.55
2017-05-19T20:55:27.627Z,3.77
2017-05-19T20:57:54.265Z,2.68
2017-05-19T21:00:20.880Z,3.03
2017-05-19T21:02:47.594Z,3.27
2017-05-19T21:05:14.326Z,2.37
2017-05-19T21:07:40.967Z,3.50
2017-05-19T21:10:07.585Z,2.73
2017-05-19T21:12:34.219Z,2.92
2017-05-19T21:15:00.839Z,2.67
2017-05-19T21:17:27.523Z,2.62
2017-05-19T21:19:54.164Z,2.97
2017-05-19T21:22:20.775Z,3.30
2017-05-19T21:24:47.439Z,3.00
2017-05-19T21:27:14.094Z,4.37
2017-05-19T21:29:40.709Z,3.30
2017-05-19T21:32:07.318Z,3.70
2017-05-19T21:34:33.956Z,4.57
2017-05-19T21:37:00.635Z,3.60
2017-05-19T21:39:27.248Z,4.75
2017-05-19T21:41:53.884Z,5.52
2017-05-19T21:44:20.496Z,5.07
2017-05-19T21:46:47.194Z,4.75
2017-05-19T21:49:13.844Z,5.58
2017-05-19T21:51:40.459Z,4.92
2017-05-19T21:54:07.078Z,6.70
2017-05-19T21:56:33.846Z,5.80
2017-05-19T21:59:00.486Z,6.35
2017-05-19T22:01:27.127Z,6.82
2017-05-19T22:03:53.767Z,7.80
2017-05-19T22:06:20.379Z,7.77
2017-05-19T22:08:47.041Z,7.72
2017-05-19T22:11:13.680Z,8.18
2017-05-19T22:13:40.358Z,9.37
2017-05-19T22:16:06.983Z,12.12
2017-05-19T22:18:33.698Z,10.15
2017-05-19T22:21:00.327Z,10.33
2017-05-19T22:23:26.948Z,10.40
2017-05-19T22:25:53.600Z,9.45
2017-05-19T22:28:20.219Z,10.28
2017-05-19T22:30:46.898Z,9.10
2017-05-19T22:33:13.942Z,10.07
2017-05-19T22:35:40.570Z,10.17
2017-05-19T22:38:07.196Z,10.15
2017-05-19T22:40:33.847Z,9.72
2017-05-19T22:43:00.503Z,8.55
2017-05-19T22:45:27.143Z,8.92
2017-05-19T22:47:53.884Z,9.60
2017-05-19T22:50:20.511Z,10.08
2017-05-19T22:52:47.159Z,8.83
2017-05-19T22:55:13.811Z,10.63
2017-05-19T22:57:40.431Z,9.23
2017-05-19T23:00:07.112Z,9.75
2017-05-19T23:02:33.765Z,9.30
2017-05-19T23:05:00.459Z,9.22
2017-05-19T23:07:27.075Z,9.23
2017-05-19T23:09:53.727Z,9.45
2017-05-19T23:12:20.348Z,8.77
2017-05-19T23:14:46.967Z,8.93
2017-05-19T23:17:13.623Z,9.70
2017-05-19T23:19:40.291Z,9.82
2017-05-19T23:22:06.911Z,8.95
2017-05-19T23:24:33.554Z,9.57
2017-05-19T23:27:00.207Z,8.00
2017-05-19T23:29:26.823Z,9.68
2017-05-19T23:31:53.483Z,9.82
2017-05-19T23:34:20.103Z,9.15
2017-05-19T23:36:46.762Z,11.85
2017-05-19T23:39:13.404Z,9.52
2017-05-19T23:41:40.027Z,10.57
2017-05-19T23:44:06.716Z,8.68
2017-05-19T23:46:33.355Z,9.23
2017-05-19T23:48:59.980Z,10.30
2017-05-19T23:51:26.599Z,10.22
2017-05-19T23:53:53.264Z,10.23
2017-05-19T23:56:19.899Z,11.82
2017-05-19T23:58:46.515Z,8.52
